Airfield :
LOGIN :

Register | Disclaimer

   EN    FR    IT 

 










Legend :    VFR   Marginal VFR   IFR   Intensive IFR   Very Intensive IFR
Visi :
Ceiling :
>= 8 km
>= 3000ft
5 to 8 km
1000 to 3000 ft
1500m to 5 km
500 to 1000 ft
800 to 1500m
200 to 500 ft
< 800m
< 200 ft
Symbols :   Thunderstorms  Fog  Heavy snow  Heavy precipitations  Wind > 20 kt
SIGMETs :     Misc.  Thunderstorms  Icing  Turbulence  Mountain Waves  Volcanic Ashes






- Airport Elevation : 465 ft
- IATA code : LEJ


EDDP - Leipzig Halle

CURRENT METAR :
  • 221950Z 24027KT 9999 BKN046 10/03 Q1017 TEMPO 27025G45KT RA

EXPIRED METARs :
  • 221920Z 24025G36KT 9999 BKN043 10/03 Q1017 TEMPO 27025G45KT RA
  • 221850Z 24026KT 9999 SCT047 10/03 Q1016 TEMPO 24025G35KT
  • 221820Z 24025KT 9999 BKN040 10/03 Q1016 TEMPO 24025G35KT
  • 221750Z 24022KT 9999 BKN041 10/02 Q1017 TEMPO 24025G35KT
  • 221720Z 24022KT 9999 BKN041 10/02 Q1017 TEMPO 24025G35KT

TAF TAF EDDP
Valid from the 22 at 18:00 until the 23 at 18:00 UTC


221700Z 2218/2318 24020G35KT 9999 BKN030
TEMPO 2220/2223 24025G45KT SHRA BKN020CB
BECMG 2221/2301 24013KT
PROB30
TEMPO 2301/2312 24015G25KT
TEMPO 2308/2316 RA BKN012



MET'MAP, your aeronautical weather chart ! - Copyright ORBIFLY December 2007 - Disclaimer

ORBIFLY MET'MAP TEAM :

Programming & Development : Alexandra Zaïnal
Concept & original design : Baudouin d'Aumeries
Assistance for programming : Marc-Olivier Méhu
Technical & hardware support : Manuel Goepfert

Contact : metmap@orbifly.com




SOURCES & CREDITS :

   NOAA